createdAt,value
2022-12-01T00:00:13.006Z,100212.97
2022-12-01T00:02:39.837Z,100222.38
2022-12-01T00:05:06.838Z,100224.13
2022-12-01T00:07:33.693Z,100201.28
2022-12-01T00:10:18.913Z,100225.81
2022-12-01T00:12:45.772Z,100212.16
2022-12-01T00:15:12.766Z,100210.91
2022-12-01T00:17:39.700Z,100215.41
2022-12-01T00:20:07.370Z,100222.66
2022-12-01T00:22:34.144Z,100223.25
2022-12-01T00:25:00.947Z,100201.56
2022-12-01T00:27:27.686Z,100194.91
2022-12-01T00:29:54.382Z,100202.69
2022-12-01T00:32:21.287Z,100214.91
2022-12-01T00:34:48.039Z,100210.75
2022-12-01T00:37:14.740Z,100204.91
2022-12-01T00:39:41.723Z,100202.13
2022-12-01T00:42:13.122Z,100185.38
2022-12-01T00:44:40.448Z,100177.06
2022-12-01T00:47:07.439Z,100182.34
2022-12-01T00:49:34.135Z,100190.47
2022-12-01T00:52:00.877Z,100196.63
2022-12-01T00:54:27.693Z,100200.56
2022-12-01T00:56:54.394Z,100175.25
2022-12-01T00:59:21.131Z,100176.63
2022-12-01T01:01:48.058Z,100187.47
2022-12-01T01:04:14.848Z,100191.03
2022-12-01T01:06:43.436Z,100195.22
2022-12-01T01:09:11.707Z,100173.72
2022-12-01T01:11:38.648Z,100168.13
2022-12-01T01:14:05.932Z,100167.53
2022-12-01T01:16:33.249Z,100176.19
2022-12-01T01:19:00.619Z,100192.94
2022-12-01T01:21:28.031Z,100162.63
2022-12-01T01:23:55.796Z,100180.94
2022-12-01T01:26:25.447Z,100185.94
2022-12-01T01:28:53.410Z,100192.03
2022-12-01T01:31:23.511Z,100193.97
2022-12-01T01:33:50.583Z,100190.34
2022-12-01T01:36:18.900Z,100157.44
2022-12-01T01:38:46.306Z,100140.53
2022-12-01T01:41:13.664Z,100148.97
2022-12-01T01:43:52.212Z,100152.66
2022-12-01T01:46:20.461Z,100150.94
2022-12-01T01:48:57.817Z,100156.56
2022-12-01T01:51:33.767Z,100148.19
2022-12-01T01:54:05.057Z,100157.09
2022-12-01T01:56:32.257Z,100137.06
2022-12-01T01:58:59.924Z,100143.13
2022-12-01T02:01:26.716Z,100132.53
2022-12-01T02:03:54.886Z,100146.16
2022-12-01T02:06:23.987Z,100143.94
2022-12-01T02:08:51.032Z,100151.75
2022-12-01T02:11:49.588Z,100157.09
2022-12-01T02:14:40.511Z,100163.78
2022-12-01T02:17:40.250Z,100160.72
2022-12-01T02:20:41.715Z,100145.09
2022-12-01T02:23:26.251Z,100150.06
2022-12-01T02:26:11.723Z,100154.78
2022-12-01T02:29:07.856Z,100157.28
2022-12-01T02:31:51.899Z,100147.84
2022-12-01T02:34:28.180Z,100150.94
2022-12-01T02:37:28.478Z,100149.31
2022-12-01T02:40:13.729Z,100156.75
2022-12-01T02:42:59.824Z,100156.09
2022-12-01T02:45:41.010Z,100158.31
2022-12-01T02:48:17.916Z,100159.47
2022-12-01T02:50:46.779Z,100157.81
2022-12-01T02:53:19.004Z,100153.97
2022-12-01T02:55:54.836Z,100151.16
2022-12-01T02:58:22.535Z,100156.19
2022-12-01T03:01:25.408Z,100151.50
2022-12-01T03:04:22.294Z,100159.34
2022-12-01T03:07:03.065Z,100149.00
2022-12-01T03:09:51.157Z,100146.78
2022-12-01T03:12:24.338Z,100147.63
2022-12-01T03:15:09.403Z,100143.75
2022-12-01T03:17:57.288Z,100134.78
2022-12-01T03:20:34.569Z,100123.81
2022-12-01T03:23:11.118Z,100141.13
2022-12-01T03:25:42.330Z,100138.34
2022-12-01T03:28:27.641Z,100145.00
2022-12-01T03:30:59.373Z,100141.16
2022-12-01T03:33:33.299Z,100155.66
2022-12-01T03:36:05.706Z,100161.25
2022-12-01T03:38:36.464Z,100153.47
2022-12-01T03:41:27.519Z,100132.09
2022-12-01T03:44:04.306Z,100152.34
2022-12-01T03:46:44.782Z,100142.59
2022-12-01T03:49:12.926Z,100139.00
2022-12-01T03:52:11.489Z,100130.97
2022-12-01T03:54:47.516Z,100131.84
2022-12-01T03:57:21.014Z,100125.69
2022-12-01T03:59:48.612Z,100129.03
2022-12-01T04:02:17.162Z,100126.25
2022-12-01T04:04:43.918Z,100129.63
2022-12-01T04:07:14.573Z,100132.16
2022-12-01T04:09:41.913Z,100124.34
2022-12-01T04:12:32.939Z,100118.25
2022-12-01T04:15:01.949Z,100115.78
2022-12-01T04:17:29.053Z,100122.19
2022-12-01T04:19:56.106Z,100111.84
2022-12-01T04:22:23.344Z,100112.06
2022-12-01T04:24:50.135Z,100106.75
2022-12-01T04:27:16.927Z,100082.78
2022-12-01T04:29:43.664Z,100099.44
2022-12-01T04:32:10.525Z,100096.84
2022-12-01T04:34:37.748Z,100097.38
2022-12-01T04:37:06.235Z,100089.91
2022-12-01T04:39:33.511Z,100096.25
2022-12-01T04:42:00.921Z,100101.81
2022-12-01T04:44:33.106Z,100085.13
2022-12-01T04:47:01.875Z,100089.81
2022-12-01T04:49:28.684Z,100086.13
2022-12-01T04:51:55.389Z,100084.75
2022-12-01T04:54:22.655Z,100077.75
2022-12-01T04:56:49.541Z,100070.84
2022-12-01T04:59:16.667Z,100070.78
2022-12-01T05:01:43.638Z,100084.69
2022-12-01T05:04:14.368Z,100068.50
2022-12-01T05:06:41.146Z,100072.75
2022-12-01T05:09:11.194Z,100071.84
2022-12-01T05:11:39.976Z,100067.84
2022-12-01T05:14:06.999Z,100080.81
2022-12-01T05:16:34.586Z,100062.13
2022-12-01T05:19:23.022Z,100066.59
2022-12-01T05:21:50.904Z,100084.91
2022-12-01T05:24:18.765Z,100089.31
2022-12-01T05:26:45.679Z,100070.41
2022-12-01T05:29:14.122Z,100088.75
2022-12-01T05:31:41.009Z,100101.22
2022-12-01T05:34:08.328Z,100083.41
2022-12-01T05:36:35.118Z,100102.06
2022-12-01T05:39:01.948Z,100103.19
2022-12-01T05:41:28.732Z,100098.72
2022-12-01T05:43:55.589Z,100113.78
2022-12-01T05:46:22.385Z,100124.94
2022-12-01T05:48:49.163Z,100126.59
2022-12-01T05:51:17.843Z,100126.09
2022-12-01T05:53:46.481Z,100131.69
2022-12-01T05:56:13.426Z,100142.56
2022-12-01T05:58:40.561Z,100146.81
2022-12-01T06:01:07.439Z,100148.56
2022-12-01T06:03:34.150Z,100135.50
2022-12-01T06:06:01.258Z,100149.78
2022-12-01T06:08:28.026Z,100144.28
2022-12-01T06:10:54.786Z,100150.13
2022-12-01T06:13:21.712Z,100154.94
2022-12-01T06:16:03.328Z,100149.19
2022-12-01T06:18:39.547Z,100155.91
2022-12-01T06:21:07.195Z,100185.75
2022-12-01T06:23:34.503Z,100182.44
2022-12-01T06:26:01.272Z,100185.03
2022-12-01T06:28:27.968Z,100185.88
2022-12-01T06:31:01.057Z,100192.59
2022-12-01T06:33:29.547Z,100203.50
2022-12-01T06:36:04.046Z,100213.00
2022-12-01T06:38:32.880Z,100211.34
2022-12-01T06:40:59.881Z,100221.16
2022-12-01T06:43:27.232Z,100235.09
2022-12-01T06:45:59.480Z,100220.09
2022-12-01T06:48:30.431Z,100237.09
2022-12-01T06:50:59.267Z,100229.88
2022-12-01T06:53:27.527Z,100229.34
2022-12-01T06:55:55.299Z,100226.53
2022-12-01T06:58:22.547Z,100234.03
2022-12-01T07:00:52.198Z,100232.41
2022-12-01T07:03:19.292Z,100244.94
2022-12-01T07:05:55.512Z,100232.41
2022-12-01T07:08:22.292Z,100243.00
2022-12-01T07:10:57.629Z,100226.00
2022-12-01T07:13:27.656Z,100227.41
2022-12-01T07:15:59.608Z,100221.00
2022-12-01T07:18:26.544Z,100239.94
2022-12-01T07:20:53.287Z,100244.13
2022-12-01T07:23:21.523Z,100256.38
2022-12-01T07:25:48.317Z,100249.97
2022-12-01T07:28:15.083Z,100259.72
2022-12-01T07:30:41.874Z,100264.72
2022-12-01T07:33:08.695Z,100267.25
2022-12-01T07:35:35.388Z,100258.03
2022-12-01T07:38:02.073Z,100263.59
2022-12-01T07:40:28.841Z,100279.19
2022-12-01T07:42:55.555Z,100282.56
2022-12-01T07:45:22.256Z,100278.66
2022-12-01T07:47:53.720Z,100272.53
2022-12-01T07:50:20.868Z,100288.16
2022-12-01T07:52:51.366Z,100292.59
2022-12-01T07:55:18.139Z,100297.31
2022-12-01T07:57:44.831Z,100307.09
2022-12-01T08:00:12.324Z,100313.22
2022-12-01T08:02:39.261Z,100322.09
2022-12-01T08:05:06.641Z,100337.09
2022-12-01T08:07:33.368Z,100339.88
2022-12-01T08:10:00.324Z,100339.88
2022-12-01T08:12:27.022Z,100362.78
2022-12-01T08:14:53.696Z,100362.78
2022-12-01T08:17:20.640Z,100355.84
2022-12-01T08:19:47.472Z,100367.00
2022-12-01T08:22:14.392Z,100361.38
2022-12-01T08:24:41.280Z,100362.75
2022-12-01T08:27:07.969Z,100353.22
2022-12-01T08:29:35.934Z,100369.88
2022-12-01T08:32:03.075Z,100361.38
2022-12-01T08:34:29.775Z,100376.25
2022-12-01T08:36:56.460Z,100369.59
2022-12-01T08:39:23.255Z,100367.63
2022-12-01T08:41:49.986Z,100347.13
2022-12-01T08:44:16.924Z,100383.00
2022-12-01T08:46:43.847Z,100376.47
2022-12-01T08:49:11.611Z,100386.88
2022-12-01T08:51:38.306Z,100380.47
2022-12-01T08:54:05.524Z,100384.59
2022-12-01T08:56:40.887Z,100380.75
2022-12-01T08:59:08.333Z,100383.25
2022-12-01T09:01:36.044Z,100385.91
2022-12-01T09:04:07.907Z,100386.47
2022-12-01T09:06:40.440Z,100396.19
2022-12-01T09:09:14.016Z,100385.50
2022-12-01T09:11:41.077Z,100398.69
2022-12-01T09:14:07.794Z,100398.38
2022-12-01T09:16:34.843Z,100404.53
2022-12-01T09:19:01.868Z,100407.91
2022-12-01T09:21:33.060Z,100407.56
2022-12-01T09:24:02.352Z,100384.66
2022-12-01T09:26:29.179Z,100404.47
2022-12-01T09:29:01.827Z,100402.16
2022-12-01T09:31:29.038Z,100418.75
2022-12-01T09:34:01.025Z,100403.09
2022-12-01T09:36:29.331Z,100412.84
2022-12-01T09:38:56.041Z,100409.16
2022-12-01T09:41:53.252Z,100409.63
2022-12-01T09:44:44.967Z,100412.88
2022-12-01T09:47:30.447Z,100425.19
2022-12-01T09:50:00.568Z,100409.00
2022-12-01T09:52:32.882Z,100413.25
2022-12-01T09:55:01.026Z,100409.09
2022-12-01T09:57:32.736Z,100417.81
2022-12-01T10:00:03.131Z,100403.34
2022-12-01T10:02:38.521Z,100396.84
2022-12-01T10:05:12.275Z,100414.59
2022-12-01T10:07:47.002Z,100413.88
2022-12-01T10:10:18.199Z,100413.56
2022-12-01T10:12:47.696Z,100416.50
2022-12-01T10:15:24.114Z,100425.19
2022-12-01T10:18:03.023Z,100421.91
2022-12-01T10:20:44.408Z,100426.31
2022-12-01T10:23:43.452Z,100410.97
2022-12-01T10:26:18.660Z,100407.41
2022-12-01T10:29:16.667Z,100409.06
2022-12-01T10:31:48.912Z,100409.34
2022-12-01T10:34:27.489Z,100413.91
2022-12-01T10:36:54.953Z,100408.56
2022-12-01T10:39:39.127Z,100408.97
2022-12-01T10:42:24.583Z,100416.03
2022-12-01T10:44:54.664Z,100403.63
2022-12-01T10:47:24.304Z,100399.88
2022-12-01T10:49:51.758Z,100403.56
2022-12-01T10:52:33.365Z,100396.66
2022-12-01T10:55:01.793Z,100399.59
2022-12-01T10:57:31.194Z,100395.72
2022-12-01T10:59:57.840Z,100382.13
2022-12-01T11:02:27.846Z,100377.97
2022-12-01T11:05:24.716Z,100384.59
2022-12-01T11:07:52.739Z,100380.63
2022-12-01T11:10:32.025Z,100375.13
2022-12-01T11:13:31.982Z,100368.94
2022-12-01T11:16:00.852Z,100359.47
2022-12-01T11:18:36.402Z,100353.19
2022-12-01T11:21:13.440Z,100348.47
2022-12-01T11:23:51.238Z,100347.78
2022-12-01T11:26:30.671Z,100356.53
2022-12-01T11:29:04.841Z,100352.19
2022-12-01T11:31:47.049Z,100327.88
2022-12-01T11:34:34.377Z,100334.97
2022-12-01T11:37:04.636Z,100319.75
2022-12-01T11:39:35.742Z,100300.94
2022-12-01T11:42:31.589Z,100305.38
2022-12-01T11:45:07.305Z,100302.59
2022-12-01T11:47:34.191Z,100308.63
2022-12-01T11:50:04.485Z,100312.94
2022-12-01T11:52:34.183Z,100280.69
2022-12-01T11:55:21.847Z,100295.22
2022-12-01T11:57:52.318Z,100287.63
2022-12-01T12:00:24.683Z,100297.09
2022-12-01T12:03:09.891Z,100289.47
2022-12-01T12:06:39.107Z,100285.72
2022-12-01T12:09:40.149Z,100295.88
2022-12-01T12:12:10.135Z,100248.00
2022-12-01T12:15:14.053Z,100258.81
2022-12-01T12:17:47.693Z,100272.06
2022-12-01T12:20:52.443Z,100253.44
2022-12-01T12:23:37.543Z,100248.28
2022-12-01T12:26:21.151Z,100236.22
2022-12-01T12:29:16.164Z,100226.97
2022-12-01T12:32:08.723Z,100226.81
2022-12-01T12:34:38.257Z,100225.78
2022-12-01T12:37:04.786Z,100228.34
2022-12-01T12:39:40.667Z,100242.75
2022-12-01T12:42:37.141Z,100214.53
2022-12-01T12:45:11.456Z,100216.88
2022-12-01T12:48:04.251Z,100207.66
2022-12-01T12:50:33.783Z,100213.88
2022-12-01T12:53:03.833Z,100200.31
2022-12-01T12:55:41.739Z,100199.72
2022-12-01T12:58:23.919Z,100217.09
2022-12-01T13:01:19.107Z,100187.16
2022-12-01T13:03:52.556Z,100205.91
2022-12-01T13:06:39.640Z,100184.53
2022-12-01T13:09:17.930Z,100190.38
2022-12-01T13:11:47.825Z,100194.34
2022-12-01T13:14:20.389Z,100199.50
2022-12-01T13:16:49.856Z,100166.53
2022-12-01T13:19:29.812Z,100178.41
2022-12-01T13:21:57.748Z,100173.56
2022-12-01T13:24:28.905Z,100164.25
2022-12-01T13:27:10.858Z,100174.88
2022-12-01T13:29:43.900Z,100155.81
2022-12-01T13:32:37.054Z,100142.53
2022-12-01T13:35:08.085Z,100145.31
2022-12-01T13:37:38.266Z,100147.19
2022-12-01T13:40:27.474Z,100154.63
2022-12-01T13:43:07.010Z,100145.66
2022-12-01T13:45:38.621Z,100134.91
2022-12-01T13:48:07.035Z,100143.53
2022-12-01T13:50:36.591Z,100142.03
2022-12-01T13:53:28.095Z,100142.56
2022-12-01T13:56:03.859Z,100136.91
2022-12-01T13:58:33.722Z,100141.56
2022-12-01T14:01:23.035Z,100137.91
2022-12-01T14:04:01.456Z,100139.56
2022-12-01T14:06:38.669Z,100136.78
2022-12-01T14:09:16.076Z,100139.13
2022-12-01T14:12:00.785Z,100138.56
2022-12-01T14:14:33.569Z,100129.47
2022-12-01T14:17:03.319Z,100131.81
2022-12-01T14:19:48.361Z,100129.41
2022-12-01T14:22:43.953Z,100134.56
2022-12-01T14:25:25.975Z,100134.91
2022-12-01T14:27:56.438Z,100120.69
2022-12-01T14:30:45.891Z,100127.59
2022-12-01T14:33:51.215Z,100124.16
2022-12-01T14:36:20.849Z,100125.16
2022-12-01T14:38:49.559Z,100128.47
2022-12-01T14:41:23.907Z,100128.47
2022-12-01T14:44:05.842Z,100117.22
2022-12-01T14:46:41.842Z,100124.50
2022-12-01T14:49:24.103Z,100119.84
2022-12-01T14:51:56.816Z,100098.09
2022-12-01T14:54:48.937Z,100112.34
2022-12-01T14:57:20.758Z,100106.41
2022-12-01T15:00:02.850Z,100102.84
2022-12-01T15:02:29.930Z,100106.06
2022-12-01T15:05:14.011Z,100106.06
2022-12-01T15:07:43.553Z,100114.88
2022-12-01T15:10:18.661Z,100117.81
2022-12-01T15:12:46.125Z,100110.00
2022-12-01T15:15:22.402Z,100102.84
2022-12-01T15:17:52.497Z,100111.78
2022-12-01T15:20:28.345Z,100112.97
2022-12-01T15:22:56.159Z,100120.44
2022-12-01T15:25:23.869Z,100117.81
2022-12-01T15:28:15.541Z,100119.91
2022-12-01T15:30:44.544Z,100117.50
2022-12-01T15:33:31.625Z,100123.72
2022-12-01T15:36:02.125Z,100118.91
2022-12-01T15:38:32.704Z,100121.72
2022-12-01T15:43:57.188Z,100123.97
2022-12-01T15:46:29.724Z,100131.25
2022-12-01T15:49:18.902Z,100129.88
2022-12-01T15:51:48.215Z,100117.75
2022-12-01T15:54:24.976Z,100105.66
2022-12-01T15:56:54.993Z,100131.34
2022-12-01T15:59:36.677Z,100129.16
2022-12-01T16:02:23.993Z,100119.53
2022-12-01T16:05:20.076Z,100130.25
2022-12-01T16:08:12.725Z,100126.56
2022-12-01T16:10:37.304Z,100133.34
2022-12-01T16:13:36.282Z,100132.88
2022-12-01T16:16:23.171Z,100138.66
2022-12-01T16:19:02.483Z,100140.44
2022-12-01T16:21:33.817Z,100148.34
2022-12-01T16:24:05.928Z,100145.97
2022-12-01T16:26:34.026Z,100153.28
2022-12-01T16:29:00.895Z,100169.09
2022-12-01T16:31:27.926Z,100166.63
2022-12-01T16:34:13.924Z,100164.06
2022-12-01T16:36:50.268Z,100173.00
2022-12-01T16:39:17.119Z,100164.16
2022-12-01T16:41:44.960Z,100170.31
2022-12-01T16:44:28.180Z,100171.66
2022-12-01T16:46:56.412Z,100169.09
2022-12-01T16:49:23.352Z,100171.06
2022-12-01T16:51:56.002Z,100178.13
2022-12-01T16:54:23.586Z,100168.97
2022-12-01T16:56:51.153Z,100162.22
2022-12-01T16:59:18.361Z,100181.16
2022-12-01T17:01:45.152Z,100172.44
2022-12-01T17:04:11.951Z,100183.16
2022-12-01T17:06:38.898Z,100168.81
2022-12-01T17:09:06.150Z,100181.59
2022-12-01T17:11:33.301Z,100181.41
2022-12-01T17:14:00.233Z,100181.28
2022-12-01T17:16:27.122Z,100179.41
2022-12-01T17:18:54.067Z,100192.41
2022-12-01T17:21:20.834Z,100183.25
2022-12-01T17:23:47.767Z,100182.22
2022-12-01T17:26:17.644Z,100167.78
2022-12-01T17:28:44.675Z,100191.38
2022-12-01T17:31:12.229Z,100182.41
2022-12-01T17:33:39.386Z,100179.06
2022-12-01T17:36:10.395Z,100184.06
2022-12-01T17:38:39.259Z,100174.06
2022-12-01T17:41:12.111Z,100182.59
2022-12-01T17:43:40.068Z,100188.22
2022-12-01T17:46:09.197Z,100186.97
2022-12-01T17:48:38.039Z,100190.66
2022-12-01T17:51:06.203Z,100195.78
2022-12-01T17:53:33.270Z,100189.63
2022-12-01T17:55:59.983Z,100199.19
2022-12-01T17:58:26.939Z,100188.94
2022-12-01T18:00:54.208Z,100195.38
2022-12-01T18:03:21.257Z,100193.59
2022-12-01T18:06:02.332Z,100200.13
2022-12-01T18:08:30.813Z,100200.13
2022-12-01T18:11:07.908Z,100192.94
2022-12-01T18:13:44.004Z,100198.53
2022-12-01T18:16:14.645Z,100198.03
2022-12-01T18:18:41.992Z,100201.94
2022-12-01T18:21:12.070Z,100200.28
2022-12-01T18:23:39.240Z,100210.66
2022-12-01T18:26:15.978Z,100210.22
2022-12-01T18:28:44.015Z,100218.09
2022-12-01T18:31:16.085Z,100217.34
2022-12-01T18:33:44.880Z,100217.97
2022-12-01T18:36:16.093Z,100207.41
2022-12-01T18:38:43.310Z,100224.00
2022-12-01T18:41:10.196Z,100221.59
2022-12-01T18:43:37.089Z,100235.91
2022-12-01T18:46:05.368Z,100244.06
2022-12-01T18:48:32.834Z,100249.22
2022-12-01T18:51:07.013Z,100242.84
2022-12-01T18:53:34.506Z,100250.94
2022-12-01T18:56:06.530Z,100240.72
2022-12-01T18:58:33.864Z,100237.06
2022-12-01T19:01:01.784Z,100238.53
2022-12-01T19:03:32.523Z,100240.41
2022-12-01T19:05:59.608Z,100239.34
2022-12-01T19:08:26.466Z,100243.34
2022-12-01T19:11:00.707Z,100232.28
2022-12-01T19:13:28.230Z,100228.78
2022-12-01T19:15:55.287Z,100236.97
2022-12-01T19:18:22.530Z,100245.09
2022-12-01T19:20:49.414Z,100242.06
2022-12-01T19:23:16.268Z,100249.66
2022-12-01T19:25:43.078Z,100243.28
2022-12-01T19:28:10.046Z,100245.22
2022-12-01T19:30:36.739Z,100241.03
2022-12-01T19:33:03.432Z,100240.44
2022-12-01T19:35:30.184Z,100234.88
2022-12-01T19:37:57.011Z,100249.41
2022-12-01T19:40:23.723Z,100239.38
2022-12-01T19:42:50.514Z,100244.97
2022-12-01T19:45:17.383Z,100250.50
2022-12-01T19:47:44.076Z,100242.09
2022-12-01T19:50:10.922Z,100223.66
2022-12-01T19:52:37.855Z,100244.19
2022-12-01T19:55:05.945Z,100245.56
2022-12-01T19:57:32.630Z,100238.81
2022-12-01T19:59:59.416Z,100243.34
2022-12-01T20:02:29.028Z,100248.66
2022-12-01T20:04:56.713Z,100243.13
2022-12-01T20:07:23.681Z,100250.44
2022-12-01T20:09:50.467Z,100238.50
2022-12-01T20:12:17.673Z,100223.25
2022-12-01T20:14:44.479Z,100233.84
2022-12-01T20:17:15.688Z,100257.25
2022-12-01T20:19:44.432Z,100251.22
2022-12-01T20:22:11.138Z,100252.94
2022-12-01T20:24:41.221Z,100252.63
2022-12-01T20:27:09.122Z,100245.53
2022-12-01T20:29:36.075Z,100253.56
2022-12-01T20:32:03.932Z,100255.84
2022-12-01T20:34:34.081Z,100244.06
2022-12-01T20:37:01.713Z,100244.06
2022-12-01T20:39:31.504Z,100244.66
2022-12-01T20:41:58.495Z,100251.91
2022-12-01T20:44:25.259Z,100229.63
2022-12-01T20:46:52.617Z,100245.25
2022-12-01T20:49:19.872Z,100241.66
2022-12-01T20:51:47.243Z,100233.03
2022-12-01T20:54:31.138Z,100237.22
2022-12-01T20:56:58.988Z,100237.88
2022-12-01T20:59:26.391Z,100236.97
2022-12-01T21:01:53.421Z,100239.25
2022-12-01T21:04:20.406Z,100233.09
2022-12-01T21:06:47.372Z,100225.88
2022-12-01T21:09:15.097Z,100231.97
2022-12-01T21:12:09.354Z,100227.53
2022-12-01T21:14:42.987Z,100239.84
2022-12-01T21:17:38.231Z,100248.34
2022-12-01T21:20:21.978Z,100243.38
2022-12-01T21:22:53.396Z,100232.53
2022-12-01T21:25:23.554Z,100224.22
2022-12-01T21:27:50.992Z,100237.84
2022-12-01T21:30:25.947Z,100241.75
2022-12-01T21:32:54.019Z,100248.97
2022-12-01T21:35:25.491Z,100231.66
2022-12-01T21:38:01.759Z,100239.13
2022-12-01T21:40:29.175Z,100226.59
2022-12-01T21:42:58.774Z,100231.81
2022-12-01T21:45:31.329Z,100235.75
2022-12-01T21:48:14.297Z,100226.59
2022-12-01T21:50:41.179Z,100240.28
2022-12-01T21:53:18.800Z,100239.19
2022-12-01T21:55:49.553Z,100231.16
2022-12-01T21:58:24.871Z,100226.16
2022-12-01T22:00:53.054Z,100239.03
2022-12-01T22:03:43.337Z,100234.66
2022-12-01T22:09:00.443Z,100239.16
2022-12-01T22:11:29.312Z,100221.66
2022-12-01T22:14:16.164Z,100222.78
2022-12-01T22:16:45.644Z,100237.81
2022-12-01T22:19:15.509Z,100230.53
2022-12-01T22:21:50.319Z,100220.84
2022-12-01T22:24:27.428Z,100230.81
2022-12-01T22:27:00.194Z,100235.25
2022-12-01T22:29:28.503Z,100228.00
2022-12-01T22:32:07.431Z,100218.59
2022-12-01T22:34:34.284Z,100230.28
2022-12-01T22:37:01.004Z,100214.19
2022-12-01T22:39:35.559Z,100227.03
2022-12-01T22:42:13.452Z,100221.78
2022-12-01T22:44:41.631Z,100222.88
2022-12-01T22:47:10.027Z,100218.06
2022-12-01T22:49:36.825Z,100228.66
2022-12-01T22:52:22.468Z,100224.78
2022-12-01T22:54:50.380Z,100228.06
2022-12-01T22:57:25.508Z,100234.22
2022-12-01T22:59:52.680Z,100231.94
2022-12-01T23:02:33.516Z,100226.66
2022-12-01T23:05:07.750Z,100229.16
2022-12-01T23:07:41.719Z,100231.63
2022-12-01T23:10:13.275Z,100228.56
2022-12-01T23:12:40.911Z,100225.28
2022-12-01T23:15:31.611Z,100221.97
2022-12-01T23:18:19.022Z,100222.28
2022-12-01T23:20:51.046Z,100222.78
2022-12-01T23:23:29.210Z,100224.19
2022-12-01T23:25:56.540Z,100230.88
2022-12-01T23:28:24.263Z,100226.19
2022-12-01T23:30:55.194Z,100219.81
2022-12-01T23:33:24.401Z,100233.44
2022-12-01T23:35:55.655Z,100234.53
2022-12-01T23:38:26.464Z,100221.44
2022-12-01T23:40:55.681Z,100230.88
2022-12-01T23:43:29.906Z,100235.06
2022-12-01T23:46:24.737Z,100224.47
2022-12-01T23:48:56.733Z,100209.69
2022-12-01T23:51:32.299Z,100226.97
2022-12-01T23:54:10.966Z,100230.59
2022-12-01T23:56:38.763Z,100237.00
2022-12-01T23:59:13.119Z,100217.47
